Hlavní strana
METAR-TAF:

METAR-TAF

Letiště :

Paris, Tennessee, Spojené státy americké

zeměpisná šířka: 36-20-18N, zeměpisná délka: 088-22-58W, výška: 177 m

Aktuální stav počasí

Zpráva byla vytvořena před 14 minutami, v 19:35 UTC
Severoseverovýchodní vítr 8 kt s nárazy do 16 kt
Teplota 22°C
Vlhkost vzduchu 43%
Tlak 1018 hPa
Viditelnost: 16.1 km
Jasno

METAR: KPHT 131935Z AUTO 03008G16KT 10SM CLR 22/09 A3006 RMK A01

Čas: 14:49 (19:49 UTC)


TAF: chybějící

Stav a předpovědi počasí z více než 4 000 letišť (zprávy METAR a TAF).

Červené a žluté tečky na mapě představují dostupné meteorologické stanice.

Když kurzor umístíte na tečku, zobrazí se název stanice.

Pak kliknutím zobrazíte stav a předpověď počasí.

Chcete-li změnit mapu, kliknutím na zelené tlačítko se znaménkem +mapu přiblížíte, kliknutím na zelené tlačítko se znaménkem – mapu oddálíte a kliknutím na zelené šipky přejdete na sousední mapy.


METAR-TAF: